Weather at El Oasis Airport

Public forecast

Using degrees Celsius for public forecast. Weather courtesy of forecast.io.

Closest aviation weather report (METAR) to El Oasis Airport

Closest report is Barinas Airport, 21.3 nm (39.4 km) NW.

2023/03/31 00:03 (retrieved 28 minutes ago)

SVBI 310003Z AUTO /////KT NCD 34/18 Q1012

Closest aviation forecast (TAF) to El Oasis Airport

Forecast is more than 12 hours old.

Closest forecast is San Antonio Del Tachira Airport, 150.9 nm (279.5 km) WSW.

2023/03/30 06:00 (retrieved 19 hours ago)

TAF SVSA 300400Z 3006/3106 06013KT 9999 SCT013 TX31/3119Z TN20/3108Z BECMG 3009/3012 09003KT 9999 SCT016 BKN100